Time;durP1;ratioP1;P1;durP2;ratioP2;P2;SDS_P1;SDS_P2;PMS_P1;PMS_P2;Temp;Humidity;BMP_temperature;BMP_pressure;BME280_temperature;BME280_humidity;BME280_pressure;Samples;Min_cycle;Max_cycle;Signal;HPM_P1;HPM_P2
2022/12/26 00:00:23;;;;;;;;;4.33;2.00;;;;;14.90;100.00;101082.53;5032397;28;45458;-76
2022/12/26 00:02:49;;;;;;;;;4.33;3.00;;;;;14.90;100.00;101090.53;5040132;28;45490;-76
2022/12/26 00:05:14;;;;;;;;;2.67;1.33;;;;;14.91;100.00;101100.25;5039139;28;45547;-73
2022/12/26 00:07:40;;;;;;;;;2.00;2.00;;;;;14.90;100.00;101094.06;5035503;28;46357;-75
2022/12/26 00:10:06;;;;;;;;;3.00;1.00;;;;;14.89;100.00;101100.28;5036582;28;45462;-76
2022/12/26 00:12:31;;;;;;;;;2.00;2.00;;;;;14.85;100.00;101085.22;5036198;28;45472;-75
2022/12/26 00:14:56;;;;;;;;;3.00;1.00;;;;;14.88;100.00;101089.66;5034581;28;48392;-75
2022/12/26 00:17:22;;;;;;;;;2.00;1.00;;;;;14.86;100.00;101107.38;5035848;28;46383;-76
2022/12/26 00:19:47;;;;;;;;;3.00;0.33;;;;;14.88;100.00;101111.81;5036388;28;45367;-76
2022/12/26 00:22:14;;;;;;;;;1.00;1.00;;;;;14.87;100.00;101111.81;5035684;28;45434;-75
2022/12/26 00:24:40;;;;;;;;;3.67;1.33;;;;;14.81;100.00;101109.19;5036403;28;45617;-77
2022/12/26 00:27:05;;;;;;;;;1.00;1.00;;;;;14.84;100.00;101110.03;5035523;28;57589;-75
2022/12/26 00:29:30;;;;;;;;;0.67;0.67;;;;;14.85;100.00;101118.91;5031748;28;59163;-75
2022/12/26 00:31:56;;;;;;;;;3.00;2.00;;;;;14.85;100.00;101113.56;5039815;28;45465;-75
2022/12/26 00:34:21;;;;;;;;;3.00;1.00;;;;;14.83;100.00;101102.94;5030804;28;57014;-75
2022/12/26 00:36:46;;;;;;;;;2.00;2.00;;;;;14.80;100.00;101096.75;5050476;28;60420;-76
2022/12/26 00:39:12;;;;;;;;;3.00;1.00;;;;;14.85;100.00;101108.25;5031243;28;51468;-75
2022/12/26 00:41:37;;;;;;;;;4.00;2.67;;;;;14.80;100.00;101097.63;5034733;28;45350;-77
2022/12/26 00:44:02;;;;;;;;;2.00;2.00;;;;;14.85;100.00;101110.91;5036001;28;45579;-75
2022/12/26 00:46:28;;;;;;;;;3.00;1.67;;;;;14.85;100.00;101106.47;5034200;28;46310;-75
2022/12/26 00:48:53;;;;;;;;;3.33;3.00;;;;;14.85;100.00;101117.13;5035062;28;45554;-75
2022/12/26 00:51:20;;;;;;;;;4.33;3.33;;;;;14.82;100.00;101119.81;5036139;28;45426;-77
2022/12/26 00:53:45;;;;;;;;;2.67;2.67;;;;;14.85;100.00;101122.44;5035915;28;45199;-75
2022/12/26 00:56:11;;;;;;;;;3.00;2.33;;;;;14.86;100.00;101120.66;5036025;28;45529;-75
2022/12/26 00:58:37;;;;;;;;;3.00;3.00;;;;;14.86;100.00;101110.03;5035227;28;51855;-76
2022/12/26 01:01:15;;;;;;;;;5.00;3.67;;;;;14.80;100.00;101088.78;5036080;28;45325;-75
2022/12/26 01:03:42;;;;;;;;;2.00;2.00;;;;;14.81;100.00;101099.44;5036127;28;45518;-75
2022/12/26 01:06:07;;;;;;;;;4.33;2.00;;;;;14.81;100.00;101104.75;5035671;28;46798;-75
2022/12/26 01:08:33;;;;;;;;;2.67;2.67;;;;;14.77;100.00;101107.41;5035186;28;45429;-75
2022/12/26 01:11:02;;;;;;;;;5.00;4.00;;;;;14.79;100.00;101117.13;5035866;28;45371;-75
2022/12/26 01:13:27;;;;;;;;;3.00;3.00;;;;;14.75;100.00;101122.47;5040339;28;45452;-76
2022/12/26 01:15:52;;;;;;;;;5.00;3.00;;;;;14.76;100.00;101133.09;5035523;28;60520;-75
2022/12/26 01:18:19;;;;;;;;;3.00;3.00;;;;;14.76;100.00;101141.09;5036179;28;45149;-78
2022/12/26 01:20:45;;;;;;;;;5.00;4.00;;;;;14.76;100.00;101150.84;5035922;28;45492;-75
2022/12/26 01:23:10;;;;;;;;;7.00;1.00;;;;;14.73;100.00;101142.84;5035461;28;45347;-75
2022/12/26 01:25:35;;;;;;;;;3.33;2.67;;;;;14.68;100.00;101151.69;5026210;28;62379;-76
2022/12/26 01:28:01;;;;;;;;;3.00;3.00;;;;;14.71;100.00;101153.50;5031908;28;58583;-75
2022/12/26 01:30:26;;;;;;;;;3.67;3.00;;;;;14.68;100.00;101140.19;5033544;28;56069;-75
2022/12/26 01:32:51;;;;;;;;;3.67;3.33;;;;;14.64;100.00;101125.13;5036894;28;54922;-75
2022/12/26 01:35:17;;;;;;;;;6.67;2.00;;;;;14.65;100.00;101134.91;5042968;28;62882;-76
2022/12/26 01:37:42;;;;;;;;;5.00;3.00;;;;;14.64;100.00;101146.38;5031236;28;57792;-75
2022/12/26 01:40:09;;;;;;;;;4.67;3.00;;;;;14.59;100.00;101138.41;5043476;28;58840;-75
2022/12/26 01:42:38;;;;;;;;;4.00;3.00;;;;;14.58;100.00;101141.97;5041713;28;45545;-74
2022/12/26 01:45:29;;;;;;;;;2.00;2.00;;;;;14.63;100.00;101171.19;5023327;28;46479;-76
2022/12/26 01:47:58;;;;;;;;;3.33;2.00;;;;;14.59;100.00;101164.09;5033528;28;45371;-75
2022/12/26 01:50:29;;;;;;;;;2.00;1.33;;;;;14.60;100.00;101182.72;5036250;28;45683;-75
2022/12/26 01:52:58;;;;;;;;;2.00;2.00;;;;;14.59;100.00;101203.97;5039486;28;45423;-75
2022/12/26 01:55:23;;;;;;;;;5.00;2.67;;;;;14.58;100.00;101194.22;5037321;28;46717;-75
2022/12/26 01:57:59;;;;;;;;;3.67;2.00;;;;;14.57;100.00;101200.44;5038685;28;47434;-76
2022/12/26 02:00:24;;;;;;;;;3.00;1.67;;;;;14.56;100.00;101204.88;5036712;28;45212;-75
2022/12/26 02:05:33;;;;;;;;;1.00;1.00;;;;;14.54;100.00;101201.34;5039627;28;45826;-75
2022/12/26 02:08:03;;;;;;;;;1.67;1.00;;;;;14.57;100.00;101203.97;5047228;28;45348;-75
2022/12/26 02:10:32;;;;;;;;;3.00;2.00;;;;;14.57;100.00;101190.69;5038188;28;45467;-74
2022/12/26 02:12:57;;;;;;;;;2.00;1.00;;;;;14.56;100.00;101190.69;5034892;28;45425;-75
2022/12/26 02:15:22;;;;;;;;;3.00;1.67;;;;;14.57;100.00;101201.31;5029651;28;53590;-75
2022/12/26 02:17:48;;;;;;;;;3.00;2.00;;;;;14.54;100.00;101208.38;5048988;28;59160;-75
2022/12/26 02:20:20;;;;;;;;;4.67;1.00;;;;;14.49;100.00;101179.19;5038286;28;45609;-75
2022/12/26 02:23:27;;;;;;;;;1.00;1.00;;;;;14.48;100.00;101171.19;5038900;28;45438;-75
2022/12/26 02:25:55;;;;;;;;;1.33;1.33;;;;;14.47;100.00;101175.63;5037637;28;46037;-75
2022/12/26 02:28:38;;;;;;;;;2.00;1.00;;;;;14.48;100.00;101176.50;5037899;28;45533;-77
2022/12/26 02:31:14;;;;;;;;;1.00;0.67;;;;;14.49;100.00;101183.59;5041101;28;45178;-75
2022/12/26 02:34:04;;;;;;;;;1.00;1.00;;;;;14.48;100.00;101197.75;5031862;28;45553;-76
2022/12/26 02:36:45;;;;;;;;;2.00;1.00;;;;;14.47;100.00;101199.53;5032648;28;45734;-75
2022/12/26 02:39:49;;;;;;;;;2.00;1.00;;;;;14.46;100.00;101199.50;5054464;28;46564;-78
2022/12/26 02:42:34;;;;;;;;;1.33;1.00;;;;;14.43;100.00;101200.38;5036124;28;45318;-75
2022/12/26 02:48:19;;;;;;;;;1.67;0.00;;;;;14.38;100.00;101179.16;5050820;28;45725;-75
2022/12/26 03:14:51;;;;;;;;;1.00;0.67;;;;;14.21;100.00;101172.91;5050698;28;45402;-76
2022/12/26 03:17:28;;;;;;;;;0.67;0.67;;;;;14.21;100.00;101162.28;5027308;28;45700;-75
2022/12/26 03:20:00;;;;;;;;;1.00;1.00;;;;;14.23;100.00;101165.84;5036992;28;45573;-76
2022/12/26 03:22:46;;;;;;;;;0.00;0.00;;;;;14.24;100.00;101172.03;5037359;28;45705;-76
2022/12/26 03:28:04;;;;;;;;;0.00;0.00;;;;;14.22;100.00;101189.72;5037445;28;45185;-76
2022/12/26 03:30:48;;;;;;;;;1.00;0.67;;;;;14.20;100.00;101191.50;5049442;28;45645;-75
2022/12/26 03:36:21;;;;;;;;;0.00;0.00;;;;;14.12;100.00;101186.19;5036906;28;45419;-77
2022/12/26 03:38:57;;;;;;;;;0.00;0.00;;;;;14.14;100.00;101181.75;5035176;28;45507;-75
2022/12/26 04:19:31;;;;;;;;;3.00;0.00;;;;;14.08;100.00;101214.50;5049546;28;45876;-76
2022/12/26 04:44:34;;;;;;;;;0.00;0.00;;;;;14.01;100.00;101222.41;5036219;28;45458;-74
2022/12/26 04:46:59;;;;;;;;;0.00;0.00;;;;;14.03;100.00;101228.63;5050135;28;45557;-75
2022/12/26 04:52:13;;;;;;;;;0.00;0.00;;;;;13.98;100.00;101233.94;5030122;28;45778;-76
2022/12/26 04:54:39;;;;;;;;;0.00;0.00;;;;;14.02;100.00;101262.28;5032142;28;45568;-75
2022/12/26 04:57:04;;;;;;;;;1.00;0.00;;;;;13.99;100.00;101256.06;5035377;28;45482;-74
2022/12/26 04:59:30;;;;;;;;;2.00;0.00;;;;;14.00;100.00;101263.13;5035556;28;47027;-75
2022/12/26 05:10:15;;;;;;;;;1.00;0.00;;;;;13.99;100.00;101256.94;5036065;28;45552;-75
2022/12/26 05:12:41;;;;;;;;;0.00;0.00;;;;;13.99;100.00;101259.59;5033645;28;45431;-74
2022/12/26 05:15:06;;;;;;;;;1.33;0.00;;;;;13.99;100.00;101272.88;5031209;28;61809;-75
2022/12/26 05:28:41;;;;;;;;;0.00;0.00;;;;;13.95;100.00;101280.81;5034737;28;45503;-75
2022/12/26 05:31:14;;;;;;;;;1.67;0.00;;;;;13.87;100.00;101273.72;5028878;28;45341;-75
2022/12/26 05:36:26;;;;;;;;;0.00;0.00;;;;;13.77;100.00;101260.38;5190857;22;45661;-74
2022/12/26 05:38:52;;;;;;;;;0.00;0.00;;;;;13.76;100.00;101275.44;5053221;28;45344;-75
2022/12/26 05:41:18;;;;;;;;;1.00;1.00;;;;;13.75;100.00;101275.44;5055021;28;45260;-75
2022/12/26 05:43:43;;;;;;;;;0.00;0.00;;;;;13.78;100.00;101286.03;5054789;28;46439;-74
2022/12/26 05:46:09;;;;;;;;;0.00;0.00;;;;;13.77;100.00;101293.13;5054923;28;45481;-75
2022/12/26 05:48:34;;;;;;;;;0.00;0.00;;;;;13.79;100.00;101299.31;5054967;28;45405;-74
2022/12/26 05:51:01;;;;;;;;;0.00;0.00;;;;;13.79;100.00;101306.38;5048698;28;45532;-76
2022/12/26 05:53:27;;;;;;;;;0.00;0.00;;;;;13.79;100.00;101327.63;5053711;28;46528;-74
2022/12/26 05:55:53;;;;;;;;;0.00;0.00;;;;;13.73;100.00;101331.13;5053796;28;45464;-76
2022/12/26 05:58:18;;;;;;;;;2.00;0.00;;;;;13.77;100.00;101330.28;5049889;28;45452;-74
2022/12/26 06:00:44;;;;;;;;;0.33;0.33;;;;;13.77;100.00;101322.31;5052628;28;45335;-74
2022/12/26 06:03:09;;;;;;;;;0.67;0.33;;;;;13.78;100.00;101333.81;5054670;28;49021;-74
2022/12/26 06:05:34;;;;;;;;;0.00;0.00;;;;;13.81;100.00;101326.78;5053800;28;62964;-75
2022/12/26 06:08:00;;;;;;;;;0.00;0.00;;;;;13.80;100.00;101314.38;5054930;28;45480;-74
2022/12/26 06:10:28;;;;;;;;;0.00;0.00;;;;;13.77;100.00;101311.69;5054641;28;53861;-74
2022/12/26 06:12:53;;;;;;;;;0.00;0.00;;;;;13.70;100.00;101311.66;5052254;28;47521;-74
2022/12/26 06:15:19;;;;;;;;;3.00;0.00;;;;;13.71;100.00;101309.03;5055053;28;45358;-74
2022/12/26 06:17:44;;;;;;;;;0.33;0.33;;;;;13.66;100.00;101301.91;5055583;28;45461;-74
2022/12/26 06:20:10;;;;;;;;;1.00;0.00;;;;;13.58;100.00;101278.88;5057626;28;49406;-74
2022/12/26 06:22:35;;;;;;;;;0.00;0.00;;;;;13.66;100.00;101296.59;5058205;28;46426;-74
2022/12/26 06:25:01;;;;;;;;;0.00;0.00;;;;;13.68;100.00;101290.41;5057076;28;57068;-73
2022/12/26 06:27:26;;;;;;;;;0.00;0.00;;;;;13.67;100.00;101287.75;5058299;28;45375;-74
2022/12/26 06:29:51;;;;;;;;;0.00;0.00;;;;;13.56;100.00;101280.63;5057991;28;45441;-73
2022/12/26 06:32:17;;;;;;;;;0.00;0.00;;;;;13.54;100.00;101281.50;5056486;28;62496;-74
2022/12/26 06:34:42;;;;;;;;;0.00;0.00;;;;;13.53;100.00;101300.94;5057745;28;45511;-74
2022/12/26 06:37:07;;;;;;;;;0.00;0.00;;;;;13.48;100.00;101311.53;5057653;28;45394;-73
2022/12/26 06:39:33;;;;;;;;;0.00;0.00;;;;;13.42;100.00;101306.16;5057634;28;47729;-74
2022/12/26 06:41:58;;;;;;;;;0.00;0.00;;;;;13.45;100.00;101318.56;5056502;28;60174;-73
2022/12/26 06:44:24;;;;;;;;;0.00;0.00;;;;;13.43;100.00;101325.66;5056658;28;45336;-74
2022/12/26 06:46:49;;;;;;;;;4.00;1.00;;;;;13.40;100.00;101329.16;5056718;28;45449;-74
2022/12/26 06:49:14;;;;;;;;;3.00;1.00;;;;;13.39;100.00;101332.69;5056614;28;45433;-74
2022/12/26 06:51:40;;;;;;;;;0.00;0.00;;;;;13.35;100.00;101329.09;5054481;28;61558;-75
2022/12/26 06:54:05;;;;;;;;;1.00;0.00;;;;;13.30;100.00;101328.19;5057798;28;45323;-73
2022/12/26 06:56:31;;;;;;;;;0.00;0.00;;;;;13.33;100.00;101341.47;5056849;28;45600;-74
2022/12/26 06:59:05;;;;;;;;;0.00;0.00;;;;;13.32;100.00;101331.75;5048720;28;45389;-76
2022/12/26 07:01:32;;;;;;;;;0.00;0.00;;;;;13.33;100.00;101336.19;5056437;28;47333;-74
2022/12/26 07:03:59;;;;;;;;;0.00;0.00;;;;;13.36;100.00;101338.84;5056006;28;46613;-75
2022/12/26 07:06:32;;;;;;;;;0.00;0.00;;;;;13.40;100.00;101345.06;5045300;28;45548;-75
2022/12/26 07:09:09;;;;;;;;;0.00;0.00;;;;;13.46;100.00;101352.19;5042793;28;46822;-75
2022/12/26 07:11:36;;;;;;;;;1.00;0.00;;;;;13.49;100.00;101360.16;5045061;28;47723;-74
2022/12/26 07:14:03;;;;;;;;;3.00;0.00;;;;;13.50;100.00;101359.28;5047685;28;45403;-75
2022/12/26 07:16:28;;;;;;;;;0.00;0.00;;;;;13.53;100.00;101357.56;5042408;28;45405;-76
2022/12/26 07:18:55;;;;;;;;;0.00;0.00;;;;;13.49;100.00;101358.41;5045536;28;45529;-75
2022/12/26 07:21:21;;;;;;;;;0.67;0.67;;;;;13.48;100.00;101363.72;5051205;28;47559;-74
2022/12/26 07:23:46;;;;;;;;;2.00;0.00;;;;;13.48;100.00;101366.38;5049085;28;45583;-75
2022/12/26 07:26:12;;;;;;;;;0.00;0.00;;;;;13.48;100.00;101367.25;5056393;28;45807;-77
2022/12/26 07:28:37;;;;;;;;;0.00;0.00;;;;;13.47;100.00;101364.56;5052286;28;54252;-74
2022/12/26 07:31:03;;;;;;;;;0.00;0.00;;;;;13.41;100.00;101353.91;5055294;28;45760;-77
2022/12/26 07:33:29;;;;;;;;;0.67;0.67;;;;;13.43;100.00;101363.66;5056559;28;45437;-80
2022/12/26 07:35:58;;;;;;;;;0.00;0.00;;;;;13.41;100.00;101372.47;5071680;28;45566;-76
2022/12/26 07:38:24;;;;;;;;;2.00;1.00;;;;;13.39;100.00;101376.88;5052067;28;45505;-76
2022/12/26 07:40:49;;;;;;;;;0.67;0.67;;;;;13.35;100.00;101363.59;5053401;28;60312;-75
2022/12/26 07:43:14;;;;;;;;;0.00;0.00;;;;;13.35;100.00;101368.91;5044968;28;59678;-77
2022/12/26 07:45:40;;;;;;;;;1.33;0.33;;;;;13.30;100.00;101370.63;5050932;28;45488;-77
2022/12/26 07:48:05;;;;;;;;;0.33;0.33;;;;;13.36;100.00;101388.34;5052555;28;56016;-77
2022/12/26 07:50:30;;;;;;;;;0.00;0.00;;;;;13.35;100.00;101398.06;5044291;28;46028;-75
2022/12/26 07:52:57;;;;;;;;;2.67;1.00;;;;;13.36;100.00;101412.22;5048410;28;60653;-74
2022/12/26 07:55:23;;;;;;;;;0.33;0.33;;;;;13.33;100.00;101410.44;5053998;28;45475;-77
2022/12/26 07:57:50;;;;;;;;;1.00;1.00;;;;;13.37;100.00;101408.72;5055667;28;45430;-78
2022/12/26 08:00:17;;;;;;;;;1.33;1.00;;;;;13.40;100.00;101408.72;5056408;28;46486;-75
2022/12/26 08:02:43;;;;;;;;;1.00;1.00;;;;;13.42;100.00;101417.56;5056335;28;45502;-75
2022/12/26 08:05:08;;;;;;;;;0.00;0.00;;;;;13.45;100.00;101420.25;5071822;28;59153;-74
2022/12/26 08:07:33;;;;;;;;;1.00;0.00;;;;;13.50;100.00;101426.50;5054812;28;55956;-74
2022/12/26 08:09:59;;;;;;;;;0.00;0.00;;;;;13.50;100.00;101422.97;5056581;28;62403;-75
2022/12/26 08:12:25;;;;;;;;;3.00;1.00;;;;;13.51;100.00;101427.38;5052706;28;59403;-75
2022/12/26 08:14:51;;;;;;;;;1.00;1.00;;;;;13.54;100.00;101436.28;5057310;28;45481;-76
2022/12/26 08:17:16;;;;;;;;;2.00;1.00;;;;;13.55;100.00;101434.50;5057526;28;45636;-76
2022/12/26 08:19:41;;;;;;;;;0.00;0.00;;;;;13.55;100.00;101437.16;5056420;28;60731;-74
2022/12/26 08:22:07;;;;;;;;;3.33;1.00;;;;;13.61;100.00;101440.75;5056556;28;61665;-77
2022/12/26 08:24:32;;;;;;;;;1.00;1.00;;;;;13.65;100.00;101432.81;5061825;28;56012;-74
2022/12/26 08:26:57;;;;;;;;;2.00;1.00;;;;;13.66;100.00;101430.16;5056979;28;53308;-74
2022/12/26 08:29:23;;;;;;;;;1.33;1.33;;;;;13.69;100.00;101439.91;5072466;28;60279;-75
2022/12/26 08:31:48;;;;;;;;;1.00;1.00;;;;;13.71;100.00;101435.53;5072790;28;45390;-74
2022/12/26 08:34:13;;;;;;;;;2.67;1.00;;;;;13.75;100.00;101456.78;5073111;28;45458;-75
2022/12/26 08:36:39;;;;;;;;;1.00;1.00;;;;;13.72;100.00;101453.22;5056624;28;52793;-75
2022/12/26 08:39:04;;;;;;;;;2.00;0.00;;;;;13.65;100.00;101448.75;5056882;28;54619;-74
2022/12/26 08:41:30;;;;;;;;;2.00;1.00;;;;;13.72;100.00;101470.03;5055342;28;59963;-76
2022/12/26 08:43:55;;;;;;;;;1.00;1.00;;;;;13.73;100.00;101470.91;5052571;28;45482;-76
2022/12/26 08:46:21;;;;;;;;;1.00;1.00;;;;;13.72;100.00;101470.03;5051340;28;45560;-75
2022/12/26 08:48:47;;;;;;;;;1.00;1.00;;;;;13.69;100.00;101475.31;5050005;28;46536;-75
2022/12/26 08:51:15;;;;;;;;;1.00;1.00;;;;;13.66;100.00;101464.66;5053047;28;45352;-74
2022/12/26 08:53:41;;;;;;;;;1.33;0.00;;;;;13.66;100.00;101464.66;5056874;28;45469;-77
2022/12/26 08:56:09;;;;;;;;;0.00;0.00;;;;;13.67;100.00;101471.75;5056965;28;45461;-77
2022/12/26 08:58:35;;;;;;;;;1.00;1.00;;;;;13.67;100.00;101471.75;5060528;28;47547;-74
2022/12/26 09:01:27;;;;;;;;;1.00;1.00;;;;;13.68;100.00;101476.16;5056765;28;45453;-75
2022/12/26 09:03:55;;;;;;;;;0.00;0.00;;;;;13.67;100.00;101477.06;5054835;28;45664;-75
2022/12/26 09:06:20;;;;;;;;;0.00;0.00;;;;;13.68;100.00;101489.44;5057155;28;45288;-76
2022/12/26 09:08:46;;;;;;;;;1.00;1.00;;;;;13.66;100.00;101492.97;5055580;28;45639;-76
2022/12/26 09:11:17;;;;;;;;;1.00;1.00;;;;;13.69;100.00;101492.97;5056331;28;45454;-74
2022/12/26 09:13:43;;;;;;;;;1.00;1.00;;;;;13.71;100.00;101499.22;5056490;28;45520;-77
2022/12/26 09:16:13;;;;;;;;;0.00;0.00;;;;;13.77;100.00;101505.47;5056846;28;45457;-74
2022/12/26 09:18:39;;;;;;;;;1.33;1.00;;;;;13.78;100.00;101512.53;5056733;28;45830;-75
2022/12/26 09:21:08;;;;;;;;;2.33;1.33;;;;;13.76;100.00;101516.06;5056376;28;45316;-74
2022/12/26 09:23:34;;;;;;;;;0.00;0.00;;;;;13.77;100.00;101516.06;5055342;28;45167;-75
2022/12/26 09:26:08;;;;;;;;;1.00;1.00;;;;;13.81;100.00;101517.00;5035717;28;45601;-74
2022/12/26 09:28:34;;;;;;;;;2.00;1.00;;;;;13.81;100.00;101509.03;5056213;28;45743;-76
2022/12/26 09:31:08;;;;;;;;;1.00;1.00;;;;;13.84;100.00;101509.94;5056249;28;45462;-74
2022/12/26 09:33:36;;;;;;;;;1.00;1.00;;;;;13.93;100.00;101516.22;5054497;28;45209;-74
2022/12/26 09:36:07;;;;;;;;;1.67;0.33;;;;;13.95;100.00;101522.41;5056590;28;45337;-76
2022/12/26 09:38:35;;;;;;;;;2.00;0.67;;;;;13.96;100.00;101527.75;5055925;28;46591;-75
2022/12/26 09:41:03;;;;;;;;;4.00;1.00;;;;;13.99;100.00;101527.75;5056102;28;45414;-74
2022/12/26 09:44:02;;;;;;;;;1.00;1.00;;;;;14.00;100.00;101528.66;5056321;28;45317;-74
2022/12/26 09:46:50;;;;;;;;;0.00;0.00;;;;;13.98;100.00;101530.41;5052827;28;45448;-74
2022/12/26 09:49:20;;;;;;;;;1.00;1.00;;;;;13.99;100.00;101532.19;5055946;28;45998;-74
2022/12/26 09:51:49;;;;;;;;;2.00;2.00;;;;;14.02;100.00;101532.22;5051425;28;45442;-75
2022/12/26 09:54:28;;;;;;;;;0.00;0.00;;;;;14.05;100.00;101537.53;5058747;28;45353;-77
2022/12/26 09:56:55;;;;;;;;;1.00;1.00;;;;;14.08;100.00;101549.09;5075049;28;45368;-76
2022/12/26 09:59:23;;;;;;;;;0.33;0.33;;;;;13.99;100.00;101530.41;5075028;28;46696;-76
2022/12/26 10:01:49;;;;;;;;;2.33;1.00;;;;;14.12;100.00;101544.69;5074915;28;45518;-77
2022/12/26 10:04:25;;;;;;;;;0.00;0.00;;;;;14.16;100.00;101538.50;5059789;28;45196;-77
2022/12/26 10:07:11;;;;;;;;;1.00;1.00;;;;;14.13;100.00;101542.03;5059236;28;45522;-73
2022/12/26 10:10:00;;;;;;;;;2.00;0.00;;;;;14.24;100.00;101559.84;5058739;28;46566;-76
2022/12/26 10:12:36;;;;;;;;;1.00;1.00;;;;;14.26;100.00;101556.28;5075166;28;45466;-74
2022/12/26 10:15:26;;;;;;;;;2.00;1.00;;;;;14.29;100.00;101558.09;5054504;28;45453;-76
2022/12/26 10:17:54;;;;;;;;;0.00;0.00;;;;;14.34;100.00;101567.00;5057074;28;45326;-75
2022/12/26 10:20:24;;;;;;;;;2.00;0.00;;;;;14.35;100.00;101564.34;5059404;28;46513;-76
2022/12/26 10:22:55;;;;;;;;;1.00;1.00;;;;;14.42;100.00;101566.16;5059166;28;45354;-77
2022/12/26 10:25:32;;;;;;;;;1.00;1.00;;;;;14.45;100.00;101565.31;5057974;28;45351;-74
2022/12/26 10:27:58;;;;;;;;;0.33;0.33;;;;;14.47;100.00;101552.00;5059259;28;45406;-77
2022/12/26 10:30:27;;;;;;;;;0.00;0.00;;;;;14.47;100.00;101558.25;5057341;28;58927;-74
2022/12/26 10:33:00;;;;;;;;;1.00;1.00;;;;;14.50;100.00;101554.75;5057579;28;46158;-74
2022/12/26 10:35:31;;;;;;;;;0.33;0.33;;;;;14.47;100.00;101541.38;5059396;28;45446;-75
2022/12/26 10:38:05;;;;;;;;;0.33;0.33;;;;;14.49;100.00;101551.19;5074286;28;45574;-74
2022/12/26 10:40:36;;;;;;;;;1.00;1.00;;;;;14.48;100.00;101554.72;5057570;28;48077;-76
2022/12/26 10:43:21;;;;;;;;;2.00;0.00;;;;;14.41;100.00;101543.13;5074268;28;45454;-76
2022/12/26 10:45:49;;;;;;;;;0.00;0.00;;;;;14.44;100.00;101552.91;5074703;28;45390;-76
2022/12/26 10:48:15;;;;;;;;;2.00;0.33;;;;;14.41;100.00;101564.38;5069151;28;45547;-74
2022/12/26 10:50:46;;;;;;;;;0.00;0.00;;;;;14.41;100.00;101560.84;5058556;28;46241;-75
2022/12/26 10:53:12;;;;;;;;;2.00;0.00;;;;;14.38;100.00;101563.47;5074412;28;45510;-74
2022/12/26 10:55:38;;;;;;;;;2.00;0.00;;;;;14.45;100.00;101553.78;5074493;28;45334;-75
2022/12/26 10:58:15;;;;;;;;;0.00;0.00;;;;;14.47;100.00;101558.25;5058942;28;45366;-75
2022/12/26 11:00:41;;;;;;;;;0.00;0.00;;;;;14.45;100.00;101562.66;5058392;28;46412;-74
2022/12/26 11:03:14;;;;;;;;;0.67;0.33;;;;;14.48;100.00;101561.78;5074645;28;45379;-77
2022/12/26 11:05:42;;;;;;;;;1.00;1.00;;;;;14.53;100.00;101566.25;5073016;28;45296;-75
2022/12/26 11:08:30;;;;;;;;;0.00;0.00;;;;;14.55;100.00;101564.53;5040013;28;45461;-75
2022/12/26 11:11:05;;;;;;;;;1.00;0.00;;;;;14.57;100.00;101564.53;5058138;28;47661;-75
2022/12/26 11:13:35;;;;;;;;;2.00;0.00;;;;;14.55;100.00;101561.88;5058130;28;45303;-74
2022/12/26 11:16:00;;;;;;;;;0.67;0.00;;;;;14.59;100.00;101576.91;5074112;28;45348;-74
2022/12/26 11:18:46;;;;;;;;;0.00;0.00;;;;;14.62;100.00;101553.03;5074000;28;47646;-73
2022/12/26 11:21:17;;;;;;;;;2.00;0.00;;;;;14.69;100.00;101564.59;5057972;28;46092;-75
2022/12/26 11:23:47;;;;;;;;;0.00;0.00;;;;;14.70;100.00;101554.84;5058486;28;45299;-75
2022/12/26 11:26:28;;;;;;;;;2.00;0.00;;;;;14.70;100.00;101560.16;5058306;28;45562;-75
2022/12/26 11:29:12;;;;;;;;;0.00;0.00;;;;;14.72;100.00;101558.41;5058592;28;45339;-75
2022/12/26 11:31:57;;;;;;;;;2.00;1.00;;;;;14.74;100.00;101554.88;5054301;28;46158;-75
2022/12/26 11:34:44;;;;;;;;;1.00;0.00;;;;;14.73;100.00;101561.06;5058140;28;45534;-76
2022/12/26 11:37:28;;;;;;;;;0.67;0.00;;;;;14.73;100.00;101576.13;5073133;28;45491;-74
2022/12/26 11:39:55;;;;;;;;;0.00;0.00;;;;;14.67;100.00;101564.59;5058154;28;45617;-73
2022/12/26 11:42:23;;;;;;;;;0.00;0.00;;;;;14.70;100.00;101587.66;5058107;28;45850;-73
2022/12/26 11:44:51;;;;;;;;;0.00;0.00;;;;;14.64;100.00;101590.25;5056718;28;45296;-77
2022/12/26 11:47:19;;;;;;;;;0.67;0.00;;;;;14.55;100.00;101625.66;5053276;28;45443;-74
2022/12/26 11:49:56;;;;;;;;;0.00;0.00;;;;;14.41;100.00;101636.13;5072278;28;45404;-74
2022/12/26 11:52:39;;;;;;;;;0.00;0.00;;;;;14.19;100.00;101634.16;5057779;28;46813;-76
2022/12/26 11:55:26;;;;;;;;;0.00;0.00;;;;;14.03;100.00;101651.72;5057947;28;45451;-72
2022/12/26 11:58:20;;;;;;;;;0.67;0.00;;;;;13.81;100.00;101628.50;5057603;28;45390;-73
2022/12/26 12:00:48;;;;;;;;;1.00;1.00;;;;;13.54;100.00;101637.94;5052956;28;45621;-77
2022/12/26 12:03:23;;;;;;;;;2.00;0.00;;;;;13.26;100.00;101638.44;5057632;28;47151;-77
2022/12/26 12:06:13;;;;;;;;;0.00;0.00;;;;;13.13;100.00;101647.06;5057747;28;45441;-75
2022/12/26 12:08:41;;;;;;;;;1.00;1.00;;;;;12.99;100.00;101654.81;5058071;28;45419;-77
2022/12/26 12:11:24;;;;;;;;;0.67;0.67;;;;;12.84;100.00;101645.81;5058160;28;45141;-75
2022/12/26 12:14:00;;;;;;;;;0.67;0.67;;;;;12.67;100.00;101647.28;5048576;28;47735;-76
2022/12/26 12:16:41;;;;;;;;;1.00;0.00;;;;;12.52;100.00;101647.97;5072889;28;45324;-77
2022/12/26 12:19:19;;;;;;;;;0.33;0.33;;;;;12.41;100.00;101643.34;5073303;28;45462;-74
2022/12/26 12:22:02;;;;;;;;;2.00;1.00;;;;;12.29;100.00;101666.09;5057620;28;45371;-75
2022/12/26 12:24:54;;;;;;;;;1.33;0.00;;;;;12.22;100.00;101669.50;5063264;28;46739;-76
2022/12/26 12:27:38;;;;;;;;;0.00;0.00;;;;;12.12;100.00;101661.38;5052843;28;45411;-75
2022/12/26 12:30:22;;;;;;;;;2.67;1.00;;;;;12.05;100.00;101665.69;5057420;28;45359;-77
2022/12/26 12:33:09;;;;;;;;;0.33;0.00;;;;;11.99;100.00;101676.16;5056104;28;45691;-76
2022/12/26 12:36:02;;;;;;;;;0.00;0.00;;;;;12.01;100.00;101688.53;5056983;28;46416;-77
2022/12/26 12:38:56;;;;;;;;;0.33;0.00;;;;;11.92;100.00;101669.84;5057072;28;45473;-75
2022/12/26 12:41:24;;;;;;;;;1.33;0.00;;;;;11.93;100.00;101676.00;5069235;28;45384;-77
2022/12/26 12:43:55;;;;;;;;;0.00;0.00;;;;;11.92;100.00;101672.47;5057313;28;45991;-76
2022/12/26 12:46:40;;;;;;;;;1.00;1.00;;;;;11.94;100.00;101669.88;5069211;28;47009;-76
2022/12/26 12:49:33;;;;;;;;;0.67;0.67;;;;;11.94;100.00;101673.41;5050820;28;45315;-78
2022/12/26 12:52:01;;;;;;;;;1.67;0.00;;;;;12.05;100.00;101676.28;5072739;28;45307;-79
2022/12/26 12:54:47;;;;;;;;;1.00;1.00;;;;;12.13;100.00;101673.75;5057087;28;45353;-74
2022/12/26 12:57:48;;;;;;;;;0.00;0.00;;;;;12.18;100.00;101680.00;5072339;28;46723;-75
2022/12/26 13:00:20;;;;;;;;;0.00;0.00;;;;;12.20;100.00;101678.31;5026195;28;45397;-76
2022/12/26 13:03:10;;;;;;;;;0.67;0.67;;;;;12.24;100.00;101686.31;5056838;28;46106;-76
2022/12/26 13:06:05;;;;;;;;;0.00;0.00;;;;;12.31;100.00;101679.38;5056653;28;45323;-76
2022/12/26 13:08:36;;;;;;;;;1.00;1.00;;;;;12.32;100.00;101686.47;5055532;28;46576;-73
2022/12/26 13:11:24;;;;;;;;;1.33;1.00;;;;;12.32;100.00;101697.94;5056588;28;45297;-76
2022/12/26 13:13:55;;;;;;;;;1.67;0.33;;;;;12.37;100.00;101697.13;5046432;28;45489;-78
2022/12/26 13:16:46;;;;;;;;;0.33;0.33;;;;;12.44;100.00;101694.59;5055704;28;45336;-75
2022/12/26 13:19:26;;;;;;;;;1.67;0.00;;;;;12.49;100.00;101702.63;5056458;28;47140;-78
2022/12/26 13:21:56;;;;;;;;;0.00;0.00;;;;;12.48;100.00;101695.56;5072135;28;45292;-77
2022/12/26 13:24:38;;;;;;;;;4.00;0.00;;;;;12.51;100.00;101699.13;5045575;28;45389;-77
2022/12/26 13:27:25;;;;;;;;;0.00;0.00;;;;;12.53;100.00;101702.72;5072266;28;45327;-76
2022/12/26 13:29:51;;;;;;;;;2.00;0.00;;;;;12.57;100.00;101704.56;5059815;28;46099;-78
2022/12/26 13:32:28;;;;;;;;;0.67;0.00;;;;;12.62;100.00;101704.59;5060137;28;45381;-75
2022/12/26 13:34:55;;;;;;;;;1.33;0.00;;;;;12.64;100.00;101713.50;5059894;28;45292;-76